Time;durP1;ratioP1;P1;durP2;ratioP2;P2;SDS_P1;SDS_P2;PMS_P1;PMS_P2;Temp;Humidity;BMP_temperature;BMP_pressure;BME280_temperature;BME280_humidity;BME280_pressure;Samples;Min_cycle;Max_cycle;Signal;HPM_P1;HPM_P2
2023/01/13 00:01:43;;;;;;;;;;;7.10;99.90;;;;;;4870642;29;19927;-72
2023/01/13 00:04:10;;;;;;;;;;;7.10;99.90;;;;;;4870851;29;19928;-72
2023/01/13 00:06:35;;;;;;;;;;;7.00;99.90;;;;;;4855882;29;20356;-72
2023/01/13 00:09:01;;;;;;;;;;;7.00;99.90;;;;;;4858462;29;19924;-72
2023/01/13 00:11:27;;;;;;;;;;;7.00;99.90;;;;;;4855896;29;19931;-72
2023/01/13 00:13:53;;;;;;;;;;;7.00;99.90;;;;;;4856963;29;19924;-72
2023/01/13 00:16:18;;;;;;;;;;;7.00;99.90;;;;;;4860488;29;19962;-72
2023/01/13 00:18:46;;;;;;;;;;;7.00;99.90;;;;;;4870998;29;21458;-72
2023/01/13 00:21:16;;;;;;;;;;;6.90;99.90;;;;;;4845533;29;19980;-73
2023/01/13 00:23:42;;;;;;;;;;;6.90;99.90;;;;;;4867918;29;19934;-72
2023/01/13 00:26:09;;;;;;;;;;;7.00;99.90;;;;;;4854854;29;19960;-72
2023/01/13 00:28:36;;;;;;;;;;;7.00;99.90;;;;;;4856280;29;20000;-72
2023/01/13 00:31:09;;;;;;;;;;;7.00;99.90;;;;;;4858335;29;19955;-72
2023/01/13 00:33:35;;;;;;;;;;;7.00;99.90;;;;;;4867446;29;19935;-72
2023/01/13 00:36:01;;;;;;;;;;;7.00;99.90;;;;;;4861476;29;19924;-72
2023/01/13 00:38:28;;;;;;;;;;;7.00;99.90;;;;;;4850591;29;19928;-72
2023/01/13 00:41:04;;;;;;;;;;;7.00;99.90;;;;;;4868746;29;19935;-72
2023/01/13 00:43:31;;;;;;;;;;;7.00;99.90;;;;;;4852381;29;19924;-72
2023/01/13 00:45:57;;;;;;;;;;;6.90;99.90;;;;;;4851304;29;19928;-72
2023/01/13 00:48:23;;;;;;;;;;;6.90;99.90;;;;;;4861249;29;19924;-72
2023/01/13 00:51:00;;;;;;;;;;;6.80;99.90;;;;;;4867891;29;20447;-72
2023/01/13 00:53:26;;;;;;;;;;;6.80;99.90;;;;;;4851376;29;19932;-72
2023/01/13 00:56:02;;;;;;;;;;;6.80;99.90;;;;;;4868862;29;19935;-72
2023/01/13 00:58:29;;;;;;;;;;;6.90;99.90;;;;;;4853538;29;19935;-72
2023/01/13 01:00:58;;;;;;;;;;;6.80;99.90;;;;;;4852474;29;19932;-72
2023/01/13 01:03:24;;;;;;;;;;;6.80;99.90;;;;;;4867893;29;19974;-72
2023/01/13 01:05:49;;;;;;;;;;;6.70;99.90;;;;;;4869436;29;19935;-72
2023/01/13 01:08:15;;;;;;;;;;;6.70;99.90;;;;;;4867564;29;20087;-72
2023/01/13 01:10:40;;;;;;;;;;;6.70;99.90;;;;;;4854818;29;20139;-72
2023/01/13 01:13:06;;;;;;;;;;;6.60;99.90;;;;;;4867049;29;20003;-72
2023/01/13 01:15:32;;;;;;;;;;;6.60;99.90;;;;;;4868465;29;20031;-72
2023/01/13 01:17:57;;;;;;;;;;;6.60;99.90;;;;;;4867662;29;19928;-72
2023/01/13 01:20:23;;;;;;;;;;;6.60;99.90;;;;;;4836310;29;19927;-72
2023/01/13 01:22:48;;;;;;;;;;;6.50;99.90;;;;;;4850903;29;19924;-72
2023/01/13 01:25:14;;;;;;;;;;;6.50;99.90;;;;;;4867015;29;19923;-72
2023/01/13 01:27:39;;;;;;;;;;;6.50;99.90;;;;;;4837578;29;19991;-72
2023/01/13 01:30:05;;;;;;;;;;;6.60;99.90;;;;;;4868065;29;19928;-72
2023/01/13 01:32:32;;;;;;;;;;;6.60;99.90;;;;;;4836941;29;19975;-72
2023/01/13 01:34:58;;;;;;;;;;;6.60;99.90;;;;;;4870874;29;19923;-72
2023/01/13 01:37:23;;;;;;;;;;;6.60;99.90;;;;;;4871690;29;19935;-72
2023/01/13 01:39:49;;;;;;;;;;;6.70;99.90;;;;;;4872954;29;19928;-72
2023/01/13 01:45:11;;;;;;;;;;;6.70;99.90;;;;;;4869793;29;19924;-72
2023/01/13 01:47:36;;;;;;;;;;;6.80;99.90;;;;;;4854727;29;19923;-72
2023/01/13 01:50:02;;;;;;;;;;;6.70;99.90;;;;;;4871047;29;19923;-72
2023/01/13 01:52:40;;;;;;;;;;;6.80;99.90;;;;;;4868527;29;19924;-72
2023/01/13 01:55:16;;;;;;;;;;;6.80;99.90;;;;;;4867440;29;20019;-72
2023/01/13 01:58:02;;;;;;;;;;;6.80;99.90;;;;;;4855014;29;19930;-72
2023/01/13 02:00:28;;;;;;;;;;;6.80;99.90;;;;;;4860174;29;19934;-72
2023/01/13 02:02:54;;;;;;;;;;;6.90;99.90;;;;;;4871207;29;19971;-72
2023/01/13 02:05:20;;;;;;;;;;;6.90;99.90;;;;;;4874044;29;19924;-72
2023/01/13 02:07:47;;;;;;;;;;;6.90;99.90;;;;;;4873984;29;19940;-72
2023/01/13 02:10:14;;;;;;;;;;;7.00;99.90;;;;;;4873005;29;19924;-72
2023/01/13 02:12:40;;;;;;;;;;;7.00;99.90;;;;;;4872741;29;19961;-73
2023/01/13 02:15:08;;;;;;;;;;;7.00;99.90;;;;;;4843124;29;19935;-72
2023/01/13 02:17:44;;;;;;;;;;;7.00;99.90;;;;;;4875509;29;19991;-72
2023/01/13 02:20:29;;;;;;;;;;;6.90;99.90;;;;;;4857048;29;20014;-72
2023/01/13 02:23:01;;;;;;;;;;;6.90;99.90;;;;;;4857541;29;19939;-72
2023/01/13 02:25:45;;;;;;;;;;;7.00;99.90;;;;;;4853282;29;20403;-72
2023/01/13 02:28:29;;;;;;;;;;;7.00;99.90;;;;;;4874902;29;19931;-72
2023/01/13 02:33:46;;;;;;;;;;;7.00;99.90;;;;;;4873670;29;19928;-72
2023/01/13 02:36:21;;;;;;;;;;;7.10;99.90;;;;;;4865558;29;20396;-72
2023/01/13 02:38:53;;;;;;;;;;;7.10;99.90;;;;;;4859402;29;19928;-72
2023/01/13 02:44:21;;;;;;;;;;;7.10;99.90;;;;;;4866737;29;19928;-72
2023/01/13 02:46:56;;;;;;;;;;;7.20;99.90;;;;;;4874030;29;19932;-72
2023/01/13 02:49:43;;;;;;;;;;;7.20;99.90;;;;;;4874933;29;20324;-72
2023/01/13 02:52:19;;;;;;;;;;;7.20;99.90;;;;;;4856931;29;20301;-72
2023/01/13 02:54:47;;;;;;;;;;;7.20;99.90;;;;;;4872862;29;19928;-72
2023/01/13 02:57:16;;;;;;;;;;;7.20;99.90;;;;;;4859685;29;20141;-72
2023/01/13 02:59:41;;;;;;;;;;;7.30;99.90;;;;;;4867021;29;19932;-73
2023/01/13 03:02:09;;;;;;;;;;;7.30;99.90;;;;;;4871375;29;19954;-73
2023/01/13 03:04:44;;;;;;;;;;;7.30;99.90;;;;;;4857535;29;19927;-73
2023/01/13 03:07:29;;;;;;;;;;;7.30;99.90;;;;;;4857805;29;19967;-73
2023/01/13 03:10:00;;;;;;;;;;;7.40;99.90;;;;;;4873495;29;19940;-73
2023/01/13 03:12:41;;;;;;;;;;;7.50;99.90;;;;;;4871484;29;19931;-73
2023/01/13 03:15:14;;;;;;;;;;;7.60;99.90;;;;;;4868537;29;19924;-73
2023/01/13 03:17:48;;;;;;;;;;;7.50;99.90;;;;;;4851799;29;19978;-73
2023/01/13 03:20:20;;;;;;;;;;;7.50;99.90;;;;;;4870093;29;19991;-73
2023/01/13 03:22:57;;;;;;;;;;;7.50;99.90;;;;;;4852212;29;19938;-72
2023/01/13 03:25:26;;;;;;;;;;;7.40;99.90;;;;;;4865556;29;19931;-72
2023/01/13 03:27:54;;;;;;;;;;;7.30;99.90;;;;;;4852317;29;20389;-72
2023/01/13 03:30:26;;;;;;;;;;;7.30;99.90;;;;;;4852084;29;20685;-72
2023/01/13 03:32:54;;;;;;;;;;;7.30;99.90;;;;;;4860087;29;19931;-72
2023/01/13 03:35:40;;;;;;;;;;;7.20;99.90;;;;;;4852631;29;20407;-72
2023/01/13 03:38:09;;;;;;;;;;;7.20;99.90;;;;;;4865011;29;19928;-72
2023/01/13 03:40:40;;;;;;;;;;;7.20;99.90;;;;;;4861632;29;19993;-72
2023/01/13 03:45:56;;;;;;;;;;;7.10;99.90;;;;;;4868778;29;19924;-72
2023/01/13 03:48:22;;;;;;;;;;;7.10;99.90;;;;;;4861640;29;19958;-72
2023/01/13 03:50:52;;;;;;;;;;;7.10;99.90;;;;;;4860345;29;19924;-72
2023/01/13 03:53:47;;;;;;;;;;;7.10;99.90;;;;;;4867090;29;19924;-72
2023/01/13 03:56:21;;;;;;;;;;;7.10;99.90;;;;;;4852607;29;19924;-72
2023/01/13 03:58:48;;;;;;;;;;;7.10;99.90;;;;;;4858369;29;20052;-72
2023/01/13 04:01:15;;;;;;;;;;;7.00;99.90;;;;;;4866290;29;19987;-72
2023/01/13 04:03:44;;;;;;;;;;;7.00;99.90;;;;;;4869720;29;20373;-72
2023/01/13 04:06:10;;;;;;;;;;;7.10;99.90;;;;;;4867495;29;19928;-72
2023/01/13 04:08:39;;;;;;;;;;;7.10;99.90;;;;;;4843697;29;20080;-72
2023/01/13 04:11:06;;;;;;;;;;;7.10;99.90;;;;;;4870626;29;20365;-72
2023/01/13 04:13:34;;;;;;;;;;;7.10;99.90;;;;;;4871319;29;19934;-72
2023/01/13 04:16:00;;;;;;;;;;;7.20;99.90;;;;;;4871111;29;19932;-73
2023/01/13 04:18:27;;;;;;;;;;;7.30;99.90;;;;;;4871321;29;20328;-73
2023/01/13 04:20:54;;;;;;;;;;;7.40;99.90;;;;;;4852682;29;19932;-73
2023/01/13 04:23:20;;;;;;;;;;;7.40;99.90;;;;;;4856384;29;19930;-73
2023/01/13 04:25:47;;;;;;;;;;;7.40;99.90;;;;;;4871212;29;19923;-73
2023/01/13 04:28:13;;;;;;;;;;;7.40;99.90;;;;;;4862468;29;19935;-73
2023/01/13 04:30:38;;;;;;;;;;;7.50;99.90;;;;;;4870086;29;19927;-73
2023/01/13 04:33:04;;;;;;;;;;;7.50;99.90;;;;;;4871582;29;19924;-73
2023/01/13 04:35:30;;;;;;;;;;;7.50;99.90;;;;;;4854460;29;19923;-73
2023/01/13 04:37:58;;;;;;;;;;;7.50;99.90;;;;;;4870054;29;19930;-73
2023/01/13 04:40:24;;;;;;;;;;;7.50;99.90;;;;;;4869925;29;19934;-73
2023/01/13 04:42:50;;;;;;;;;;;7.60;99.90;;;;;;4850778;29;19928;-73
2023/01/13 04:45:15;;;;;;;;;;;7.50;99.90;;;;;;4869608;29;19932;-73
2023/01/13 04:47:41;;;;;;;;;;;7.50;99.90;;;;;;4871716;29;19931;-73
2023/01/13 04:50:07;;;;;;;;;;;7.50;99.90;;;;;;4871308;29;19927;-73
2023/01/13 04:52:32;;;;;;;;;;;7.50;99.90;;;;;;4872818;29;19931;-73
2023/01/13 04:54:58;;;;;;;;;;;7.50;99.90;;;;;;4856188;29;19934;-73
2023/01/13 04:57:23;;;;;;;;;;;7.50;99.90;;;;;;4871674;29;19928;-73
2023/01/13 04:59:49;;;;;;;;;;;7.50;99.90;;;;;;4840651;29;19924;-73
2023/01/13 05:02:18;;;;;;;;;;;7.50;99.90;;;;;;4870253;29;19936;-73
2023/01/13 05:04:45;;;;;;;;;;;7.60;99.90;;;;;;4841178;29;20005;-73
2023/01/13 05:07:10;;;;;;;;;;;7.60;99.90;;;;;;4872497;29;19924;-73
2023/01/13 05:09:36;;;;;;;;;;;7.60;99.90;;;;;;4875467;29;19924;-73
2023/01/13 05:17:31;;;;;;;;;;;7.60;99.90;;;;;;4874951;29;20027;-73
2023/01/13 05:19:56;;;;;;;;;;;7.60;99.90;;;;;;4875699;29;19984;-73
2023/01/13 05:25:21;;;;;;;;;;;7.60;99.90;;;;;;4876944;29;19928;-73
2023/01/13 05:27:52;;;;;;;;;;;7.60;99.90;;;;;;4890188;29;19935;-73
2023/01/13 05:30:18;;;;;;;;;;;7.60;99.90;;;;;;4846401;29;19924;-73
2023/01/13 05:32:43;;;;;;;;;;;7.60;99.90;;;;;;4875106;29;19924;-73
2023/01/13 05:35:09;;;;;;;;;;;7.60;99.90;;;;;;4873963;29;19934;-73
2023/01/13 05:37:35;;;;;;;;;;;7.60;99.90;;;;;;4874130;29;19924;-73
2023/01/13 05:45:30;;;;;;;;;;;7.60;99.90;;;;;;4874139;29;19924;-73
2023/01/13 05:47:56;;;;;;;;;;;7.60;99.90;;;;;;4858077;29;20415;-73
2023/01/13 05:50:22;;;;;;;;;;;7.60;99.90;;;;;;4867680;29;19924;-73
2023/01/13 05:52:47;;;;;;;;;;;7.60;99.90;;;;;;4863806;29;19924;-73
2023/01/13 05:55:13;;;;;;;;;;;7.60;99.90;;;;;;4873215;29;19928;-73
2023/01/13 05:57:39;;;;;;;;;;;7.60;99.90;;;;;;4842390;29;20001;-73
2023/01/13 06:00:05;;;;;;;;;;;7.60;99.90;;;;;;4871891;29;19939;-73
2023/01/13 06:02:31;;;;;;;;;;;7.60;99.90;;;;;;4869717;29;19975;-73
2023/01/13 06:04:56;;;;;;;;;;;7.60;99.90;;;;;;4852614;29;19924;-73
2023/01/13 06:07:22;;;;;;;;;;;7.60;99.90;;;;;;4871112;29;20005;-73
2023/01/13 06:09:47;;;;;;;;;;;7.60;99.90;;;;;;4869410;29;19956;-73
2023/01/13 06:12:13;;;;;;;;;;;7.60;99.90;;;;;;4870614;29;19924;-73
2023/01/13 06:14:38;;;;;;;;;;;7.50;99.90;;;;;;4872573;29;19928;-73
2023/01/13 06:17:12;;;;;;;;;;;7.40;99.90;;;;;;4870430;29;20376;-73
2023/01/13 06:19:37;;;;;;;;;;;7.40;99.90;;;;;;4883916;29;20278;-73
2023/01/13 06:22:06;;;;;;;;;;;7.30;99.90;;;;;;4856704;29;20012;-73
2023/01/13 06:24:32;;;;;;;;;;;7.30;99.90;;;;;;4866300;29;19980;-72
2023/01/13 06:26:57;;;;;;;;;;;7.30;99.90;;;;;;4866405;29;19931;-72
2023/01/13 06:29:23;;;;;;;;;;;7.30;99.90;;;;;;4841433;29;20411;-72
2023/01/13 06:31:49;;;;;;;;;;;7.20;99.90;;;;;;4850053;29;19930;-72
2023/01/13 06:34:14;;;;;;;;;;;7.10;99.90;;;;;;4839948;29;20018;-72
2023/01/13 06:36:42;;;;;;;;;;;7.10;99.90;;;;;;4868416;29;19979;-73
2023/01/13 06:39:09;;;;;;;;;;;7.00;99.90;;;;;;4874821;29;19927;-72
2023/01/13 06:44:20;;;;;;;;;;;6.80;99.90;;;;;;4873647;29;19965;-72
2023/01/13 06:46:46;;;;;;;;;;;6.80;99.90;;;;;;4856951;29;19928;-72
2023/01/13 06:49:11;;;;;;;;;;;6.80;99.90;;;;;;4864106;29;19928;-72
2023/01/13 06:51:37;;;;;;;;;;;6.70;99.90;;;;;;4857987;29;19932;-72
2023/01/13 06:54:03;;;;;;;;;;;6.70;99.90;;;;;;4861617;29;19930;-72
2023/01/13 06:56:28;;;;;;;;;;;6.70;99.90;;;;;;4856684;29;19947;-72
2023/01/13 06:58:54;;;;;;;;;;;6.70;99.90;;;;;;4840445;29;19931;-72
2023/01/13 07:01:19;;;;;;;;;;;6.70;99.90;;;;;;4851300;29;19947;-72
2023/01/13 07:03:45;;;;;;;;;;;6.60;99.90;;;;;;4870432;29;19928;-72
2023/01/13 07:06:11;;;;;;;;;;;6.60;99.90;;;;;;4873930;29;20003;-72
2023/01/13 07:08:36;;;;;;;;;;;6.70;99.90;;;;;;4857228;29;19924;-72
2023/01/13 07:11:02;;;;;;;;;;;6.70;99.90;;;;;;4861766;29;19924;-72
2023/01/13 07:16:15;;;;;;;;;;;6.70;99.90;;;;;;4863761;29;19924;-72
2023/01/13 07:18:40;;;;;;;;;;;6.70;99.90;;;;;;4872349;29;19929;-72
2023/01/13 07:21:07;;;;;;;;;;;6.70;99.90;;;;;;4872231;29;19931;-71
2023/01/13 07:23:34;;;;;;;;;;;6.70;99.90;;;;;;4871917;29;20365;-72
2023/01/13 07:25:59;;;;;;;;;;;6.70;99.90;;;;;;4867504;29;19924;-72
2023/01/13 07:28:26;;;;;;;;;;;6.70;99.90;;;;;;4869559;29;19932;-72
2023/01/13 07:30:51;;;;;;;;;;;6.80;99.90;;;;;;4869673;29;20301;-72
2023/01/13 07:33:17;;;;;;;;;;;6.80;99.90;;;;;;4871571;29;19928;-72
2023/01/13 07:35:43;;;;;;;;;;;6.90;99.90;;;;;;4863430;29;19985;-72
2023/01/13 07:38:09;;;;;;;;;;;6.90;99.90;;;;;;4849622;29;19938;-72
2023/01/13 07:40:35;;;;;;;;;;;6.90;99.90;;;;;;4851347;29;20050;-72
2023/01/13 07:45:45;;;;;;;;;;;7.00;99.90;;;;;;4861222;29;19928;-72
2023/01/13 07:48:10;;;;;;;;;;;7.00;99.90;;;;;;4861397;29;20430;-72
2023/01/13 07:50:36;;;;;;;;;;;7.10;99.90;;;;;;4850256;29;19929;-72
2023/01/13 07:53:02;;;;;;;;;;;7.10;99.90;;;;;;4863336;29;19924;-72
2023/01/13 07:55:27;;;;;;;;;;;7.20;99.90;;;;;;4847061;29;19924;-72
2023/01/13 07:57:53;;;;;;;;;;;7.20;99.90;;;;;;4866124;29;19924;-72
2023/01/13 08:00:19;;;;;;;;;;;7.20;99.90;;;;;;4831911;29;19934;-72
2023/01/13 08:02:44;;;;;;;;;;;7.20;99.90;;;;;;4868181;29;19970;-72
2023/01/13 08:05:10;;;;;;;;;;;7.20;99.90;;;;;;4868528;29;19981;-72
2023/01/13 08:07:36;;;;;;;;;;;7.30;99.90;;;;;;4865077;29;19924;-72
2023/01/13 08:10:02;;;;;;;;;;;7.30;99.90;;;;;;4867381;29;19928;-72
2023/01/13 08:15:12;;;;;;;;;;;7.30;99.90;;;;;;4866630;29;19981;-72
2023/01/13 08:17:38;;;;;;;;;;;7.40;99.90;;;;;;4853901;29;19924;-72
2023/01/13 08:20:03;;;;;;;;;;;7.40;99.90;;;;;;4872679;29;19928;-72
2023/01/13 08:22:32;;;;;;;;;;;7.40;99.90;;;;;;4874118;29;19928;-72
2023/01/13 08:24:58;;;;;;;;;;;7.40;99.90;;;;;;4872826;29;19930;-72
2023/01/13 08:27:24;;;;;;;;;;;7.50;99.90;;;;;;4843899;29;19924;-72
2023/01/13 08:29:49;;;;;;;;;;;7.50;99.90;;;;;;4874325;29;20027;-72
2023/01/13 08:32:15;;;;;;;;;;;7.50;99.90;;;;;;4874109;29;20077;-72
2023/01/13 08:34:40;;;;;;;;;;;7.50;99.90;;;;;;4874605;29;20018;-72
2023/01/13 08:37:06;;;;;;;;;;;7.50;99.90;;;;;;4874162;29;19928;-72
2023/01/13 08:39:31;;;;;;;;;;;7.40;99.90;;;;;;4858125;29;19939;-72
2023/01/13 08:41:57;;;;;;;;;;;7.40;99.90;;;;;;4870000;29;19924;-73
2023/01/13 08:44:25;;;;;;;;;;;7.20;99.90;;;;;;4868603;29;19928;-72
2023/01/13 08:46:50;;;;;;;;;;;7.10;99.90;;;;;;4871476;29;19928;-72
2023/01/13 08:49:16;;;;;;;;;;;7.00;99.90;;;;;;4872184;29;20115;-72
2023/01/13 08:51:42;;;;;;;;;;;6.90;99.90;;;;;;4859683;29;19924;-72
2023/01/13 08:54:08;;;;;;;;;;;6.80;99.90;;;;;;4866810;29;19931;-72
2023/01/13 08:56:34;;;;;;;;;;;6.80;99.90;;;;;;4856826;29;19923;-72
2023/01/13 08:59:00;;;;;;;;;;;6.80;99.90;;;;;;4868743;29;19928;-72
2023/01/13 09:01:26;;;;;;;;;;;6.80;99.90;;;;;;4855022;29;19932;-73
2023/01/13 09:03:52;;;;;;;;;;;6.80;99.90;;;;;;4872243;29;19923;-72
2023/01/13 09:06:17;;;;;;;;;;;6.80;99.90;;;;;;4873952;29;19955;-73
2023/01/13 09:08:43;;;;;;;;;;;6.80;99.90;;;;;;4874494;29;19930;-74
2023/01/13 09:13:59;;;;;;;;;;;6.70;99.90;;;;;;4877124;29;19953;-73
2023/01/13 09:16:24;;;;;;;;;;;6.60;99.90;;;;;;4878523;29;19911;-73
2023/01/13 09:18:50;;;;;;;;;;;6.60;99.90;;;;;;4861277;29;19936;-73
2023/01/13 09:21:18;;;;;;;;;;;6.60;99.90;;;;;;4862980;29;19928;-75
2023/01/13 09:23:44;;;;;;;;;;;6.70;99.90;;;;;;4861872;29;19927;-75
2023/01/13 09:26:10;;;;;;;;;;;6.70;99.90;;;;;;4866552;29;19928;-74
2023/01/13 09:28:35;;;;;;;;;;;6.80;99.90;;;;;;4876355;29;19932;-74
2023/01/13 09:31:01;;;;;;;;;;;6.80;99.90;;;;;;4866404;29;19956;-74
2023/01/13 09:36:11;;;;;;;;;;;6.80;99.90;;;;;;4868273;29;19924;-74
2023/01/13 09:38:36;;;;;;;;;;;6.80;99.90;;;;;;4876251;29;19984;-74
2023/01/13 09:43:52;;;;;;;;;;;6.80;99.90;;;;;;4871524;29;19924;-74
2023/01/13 09:43:53;;;;;;;;;;;6.80;99.90;;;;;;4875872;29;19924;-73
2023/01/13 09:49:08;;;;;;;;;;;6.80;99.90;;;;;;4889193;29;19935;-73
2023/01/13 09:51:39;;;;;;;;;;;6.80;99.90;;;;;;4873439;29;19979;-74
2023/01/13 09:54:10;;;;;;;;;;;6.80;99.90;;;;;;4868451;29;19936;-73
2023/01/13 09:56:35;;;;;;;;;;;6.90;99.90;;;;;;4876269;29;19928;-74
2023/01/13 09:59:01;;;;;;;;;;;6.90;99.90;;;;;;4879869;29;19935;-73
2023/01/13 10:01:58;;;;;;;;;;;6.90;99.90;;;;;;4873236;29;19953;-73
2023/01/13 10:04:24;;;;;;;;;;;7.00;99.90;;;;;;4866163;29;19928;-73
2023/01/13 10:06:51;;;;;;;;;;;7.00;99.90;;;;;;4869761;29;20068;-73
2023/01/13 10:09:29;;;;;;;;;;;7.10;99.90;;;;;;4878140;29;19970;-73
2023/01/13 10:14:42;;;;;;;;;;;7.20;99.90;;;;;;4875100;29;19928;-74
2023/01/13 10:17:14;;;;;;;;;;;7.20;99.90;;;;;;4878616;29;19924;-73
2023/01/13 10:19:55;;;;;;;;;;;7.20;99.90;;;;;;4874689;29;19935;-73
2023/01/13 10:22:26;;;;;;;;;;;7.30;99.90;;;;;;4844196;29;19964;-73
2023/01/13 10:25:10;;;;;;;;;;;7.30;99.90;;;;;;4857162;29;20024;-73
2023/01/13 10:27:37;;;;;;;;;;;7.30;99.90;;;;;;4865808;29;19997;-73
2023/01/13 10:30:12;;;;;;;;;;;7.30;99.90;;;;;;4864571;29;19948;-73
2023/01/13 10:32:39;;;;;;;;;;;7.40;99.90;;;;;;4883515;29;19924;-73
2023/01/13 10:35:05;;;;;;;;;;;7.40;99.90;;;;;;4873261;29;19925;-74
2023/01/13 10:37:31;;;;;;;;;;;7.50;99.90;;;;;;4859720;29;19931;-73
2023/01/13 10:39:59;;;;;;;;;;;7.50;99.90;;;;;;4856133;29;19939;-73
2023/01/13 10:42:25;;;;;;;;;;;7.60;99.90;;;;;;4863936;29;20313;-74
2023/01/13 10:44:54;;;;;;;;;;;7.60;99.90;;;;;;4873909;29;19924;-73
2023/01/13 10:47:20;;;;;;;;;;;7.60;99.90;;;;;;4864242;29;19931;-73
2023/01/13 10:49:57;;;;;;;;;;;7.60;99.90;;;;;;4873800;29;19928;-73
2023/01/13 10:52:25;;;;;;;;;;;7.60;99.90;;;;;;4875520;29;20450;-73
2023/01/13 10:54:51;;;;;;;;;;;7.60;99.90;;;;;;4872569;29;19925;-73
2023/01/13 10:57:19;;;;;;;;;;;7.60;99.90;;;;;;4857098;29;19924;-73
2023/01/13 10:59:45;;;;;;;;;;;7.70;99.90;;;;;;4872376;29;20017;-73
2023/01/13 11:02:31;;;;;;;;;;;7.80;99.90;;;;;;4851740;29;20009;-73
2023/01/13 11:04:56;;;;;;;;;;;7.90;99.90;;;;;;4853695;29;19924;-73
2023/01/13 11:07:30;;;;;;;;;;;7.90;99.90;;;;;;4896223;29;20011;-70
2023/01/13 11:10:05;;;;;;;;;;;7.90;99.90;;;;;;4865362;29;19928;-70
2023/01/13 11:12:32;;;;;;;;;;;8.00;99.90;;;;;;4861284;29;19980;-70
2023/01/13 11:15:02;;;;;;;;;;;8.10;99.90;;;;;;4870427;29;19930;-70
2023/01/13 11:17:28;;;;;;;;;;;8.10;99.90;;;;;;4872974;29;19949;-71
2023/01/13 11:19:59;;;;;;;;;;;8.10;99.90;;;;;;4862416;29;19988;-70
2023/01/13 11:22:30;;;;;;;;;;;8.10;99.90;;;;;;4885255;29;19928;-70
2023/01/13 11:25:00;;;;;;;;;;;8.20;99.90;;;;;;4886290;29;19963;-70
2023/01/13 11:27:26;;;;;;;;;;;8.10;99.90;;;;;;4865759;29;19982;-70
2023/01/13 11:29:54;;;;;;;;;;;8.00;99.90;;;;;;4867583;29;19928;-70
2023/01/13 11:32:21;;;;;;;;;;;8.00;99.90;;;;;;4872670;29;19924;-70
2023/01/13 11:34:51;;;;;;;;;;;8.00;99.90;;;;;;4860592;29;20022;-70
2023/01/13 11:37:20;;;;;;;;;;;8.00;99.90;;;;;;4869751;29;19928;-70
2023/01/13 11:39:48;;;;;;;;;;;8.00;99.90;;;;;;4850876;29;19942;-70
2023/01/13 11:42:20;;;;;;;;;;;8.00;99.90;;;;;;4853583;29;19908;-70
2023/01/13 11:44:55;;;;;;;;;;;8.00;99.90;;;;;;4849997;29;19929;-70
2023/01/13 11:47:22;;;;;;;;;;;8.00;99.90;;;;;;4864136;29;19933;-70
2023/01/13 11:49:48;;;;;;;;;;;8.00;99.90;;;;;;4866542;29;19932;-70
2023/01/13 11:52:16;;;;;;;;;;;8.00;99.90;;;;;;4869085;29;19925;-70
2023/01/13 11:55:01;;;;;;;;;;;8.10;99.90;;;;;;4859172;29;20378;-71
2023/01/13 11:57:41;;;;;;;;;;;8.10;99.90;;;;;;4863913;29;20007;-70
2023/01/13 12:00:10;;;;;;;;;;;8.20;99.90;;;;;;4860351;29;19939;-70
2023/01/13 12:02:35;;;;;;;;;;;8.10;99.90;;;;;;4864880;29;20043;-70
2023/01/13 12:05:04;;;;;;;;;;;8.10;99.90;;;;;;4878839;29;19924;-71
2023/01/13 12:07:42;;;;;;;;;;;8.10;99.90;;;;;;4865856;29;19936;-72
2023/01/13 12:10:26;;;;;;;;;;;8.00;99.90;;;;;;4878925;29;19988;-72
2023/01/13 12:12:59;;;;;;;;;;;8.10;99.90;;;;;;4866556;29;19924;-72
2023/01/13 12:15:35;;;;;;;;;;;8.10;99.90;;;;;;4870929;29;20262;-71
2023/01/13 12:18:08;;;;;;;;;;;8.10;99.90;;;;;;4882255;29;20070;-71
2023/01/13 12:20:46;;;;;;;;;;;8.10;99.90;;;;;;4872558;29;19967;-72
2023/01/13 12:23:16;;;;;;;;;;;8.10;99.90;;;;;;4874970;29;19982;-72
2023/01/13 12:25:44;;;;;;;;;;;8.20;99.90;;;;;;4863769;29;19924;-72
2023/01/13 12:28:09;;;;;;;;;;;8.20;99.90;;;;;;4877396;29;19995;-71
2023/01/13 12:30:39;;;;;;;;;;;8.20;99.90;;;;;;4875381;29;19934;-71
2023/01/13 12:33:15;;;;;;;;;;;8.20;99.90;;;;;;4859624;29;19967;-71
2023/01/13 12:35:46;;;;;;;;;;;8.20;99.90;;;;;;4875444;29;19924;-71
2023/01/13 12:38:25;;;;;;;;;;;8.20;99.90;;;;;;4844482;29;19934;-72
2023/01/13 12:41:10;;;;;;;;;;;8.20;99.90;;;;;;4859830;29;19991;-72
2023/01/13 12:46:20;;;;;;;;;;;8.10;99.90;;;;;;4874812;29;19924;-72
2023/01/13 12:49:03;;;;;;;;;;;8.10;99.90;;;;;;4870906;29;19939;-72
2023/01/13 12:51:31;;;;;;;;;;;8.20;99.90;;;;;;4873543;29;19980;-72
2023/01/13 12:53:58;;;;;;;;;;;8.20;99.90;;;;;;4875196;29;19930;-71
2023/01/13 12:56:30;;;;;;;;;;;8.20;99.90;;;;;;4873768;29;19939;-72
2023/01/13 12:59:14;;;;;;;;;;;8.20;99.90;;;;;;4875423;29;19963;-73
2023/01/13 13:01:40;;;;;;;;;;;8.20;99.90;;;;;;4859869;29;20118;-71
2023/01/13 13:04:08;;;;;;;;;;;8.30;99.90;;;;;;4875026;29;19927;-71
2023/01/13 13:06:35;;;;;;;;;;;8.20;99.90;;;;;;4859213;29;19924;-71
2023/01/13 13:09:18;;;;;;;;;;;8.20;99.90;;;;;;4874413;29;19935;-71
2023/01/13 13:14:40;;;;;;;;;;;8.20;99.90;;;;;;4876246;29;19924;-72
2023/01/13 13:17:18;;;;;;;;;;;8.20;99.90;;;;;;4896002;29;19934;-72
2023/01/13 13:19:45;;;;;;;;;;;8.30;99.90;;;;;;4873769;29;19932;-72
2023/01/13 13:22:11;;;;;;;;;;;8.30;99.90;;;;;;4874070;29;19924;-72
2023/01/13 13:24:38;;;;;;;;;;;8.30;99.90;;;;;;4871920;29;19939;-72
2023/01/13 13:27:17;;;;;;;;;;;8.30;99.90;;;;;;4869280;29;19924;-72
2023/01/13 13:30:18;;;;;;;;;;;8.30;99.90;;;;;;4864725;29;19963;-72
2023/01/13 13:32:59;;;;;;;;;;;8.30;99.90;;;;;;4822603;29;19931;-72
2023/01/13 13:35:25;;;;;;;;;;;8.30;99.90;;;;;;4875825;29;19922;-73
2023/01/13 13:46:46;;;;;;;;;;;8.30;99.90;;;;;;4874807;29;20286;-72
2023/01/13 13:49:12;;;;;;;;;;;8.30;99.90;;;;;;4864532;29;19923;-73
2023/01/13 13:51:43;;;;;;;;;;;8.30;99.90;;;;;;4855393;29;19924;-72
2023/01/13 13:54:11;;;;;;;;;;;8.30;99.90;;;;;;4872020;29;19948;-72
2023/01/13 13:56:39;;;;;;;;;;;8.30;99.90;;;;;;4880275;29;19924;-73
2023/01/13 13:59:07;;;;;;;;;;;8.30;99.90;;;;;;4875501;29;19942;-73
2023/01/13 14:01:35;;;;;;;;;;;8.30;99.90;;;;;;4876898;29;19946;-73
2023/01/13 14:04:10;;;;;;;;;;;8.30;99.90;;;;;;4877696;29;19919;-73
2023/01/13 14:06:35;;;;;;;;;;;8.20;99.90;;;;;;4874956;29;19927;-73
2023/01/13 14:09:17;;;;;;;;;;;8.20;99.90;;;;;;4874681;29;19927;-72
2023/01/13 14:12:13;;;;;;;;;;;8.30;99.90;;;;;;4868037;29;19953;-73
2023/01/13 14:14:41;;;;;;;;;;;8.20;99.90;;;;;;4870284;29;19927;-73
2023/01/13 14:17:15;;;;;;;;;;;8.20;99.90;;;;;;4877647;29;20008;-72
2023/01/13 14:19:44;;;;;;;;;;;8.20;99.90;;;;;;4873220;29;19928;-73
2023/01/13 14:22:13;;;;;;;;;;;8.20;99.90;;;;;;4873109;29;19976;-72
2023/01/13 14:24:44;;;;;;;;;;;8.20;99.90;;;;;;4858937;29;20132;-72
2023/01/13 14:27:13;;;;;;;;;;;8.20;99.90;;;;;;4864976;29;19940;-71
2023/01/13 14:29:39;;;;;;;;;;;8.10;99.90;;;;;;4874639;29;20273;-71
2023/01/13 14:32:05;;;;;;;;;;;8.10;99.90;;;;;;4872286;29;19991;-71
2023/01/13 14:34:31;;;;;;;;;;;8.10;99.90;;;;;;4875193;29;19932;-71
2023/01/13 14:36:57;;;;;;;;;;;8.10;99.90;;;;;;4874554;29;19931;-71
2023/01/13 14:39:24;;;;;;;;;;;8.10;99.90;;;;;;4870234;29;19984;-71
2023/01/13 14:41:51;;;;;;;;;;;8.10;99.90;;;;;;4870363;29;19928;-71
2023/01/13 14:44:31;;;;;;;;;;;8.00;99.90;;;;;;4878099;29;19924;-71
2023/01/13 14:46:57;;;;;;;;;;;8.00;99.90;;;;;;4874794;29;19935;-71
2023/01/13 14:49:27;;;;;;;;;;;8.00;99.90;;;;;;4845520;29;20115;-71
2023/01/13 14:51:53;;;;;;;;;;;7.90;99.90;;;;;;4862154;29;19992;-71
2023/01/13 14:54:37;;;;;;;;;;;7.80;99.90;;;;;;4870714;29;19924;-71
2023/01/13 14:57:23;;;;;;;;;;;7.80;99.90;;;;;;4883800;29;19924;-71
2023/01/13 14:59:56;;;;;;;;;;;7.80;99.90;;;;;;4873363;29;19928;-71
2023/01/13 15:02:33;;;;;;;;;;;7.80;99.90;;;;;;4878900;29;19928;-71
2023/01/13 15:05:19;;;;;;;;;;;7.80;99.90;;;;;;4877309;29;20000;-71
2023/01/13 15:07:52;;;;;;;;;;;7.70;99.90;;;;;;4880904;29;19924;-71
2023/01/13 15:10:37;;;;;;;;;;;7.80;99.90;;;;;;4876180;29;20001;-71
2023/01/13 15:13:04;;;;;;;;;;;7.90;99.90;;;;;;4868171;29;20353;-71
2023/01/13 15:15:34;;;;;;;;;;;7.90;99.90;;;;;;4869015;29;19932;-71
2023/01/13 15:18:00;;;;;;;;;;;7.90;99.90;;;;;;4867492;29;19972;-71
2023/01/13 15:20:26;;;;;;;;;;;7.90;99.90;;;;;;4865643;29;19932;-71
2023/01/13 15:22:53;;;;;;;;;;;7.90;99.90;;;;;;4853381;29;19978;-71
2023/01/13 15:25:19;;;;;;;;;;;7.90;99.90;;;;;;4865739;29;19924;-70
2023/01/13 15:27:46;;;;;;;;;;;7.90;99.90;;;;;;4864089;29;20019;-70
2023/01/13 15:30:13;;;;;;;;;;;7.90;99.90;;;;;;4852279;29;19935;-71
2023/01/13 15:32:38;;;;;;;;;;;7.90;99.90;;;;;;4868926;29;19967;-70
2023/01/13 15:35:04;;;;;;;;;;;7.90;99.90;;;;;;4866704;29;20675;-70
2023/01/13 15:37:30;;;;;;;;;;;7.90;99.90;;;;;;4851202;29;19928;-71
2023/01/13 15:39:55;;;;;;;;;;;7.90;99.90;;;;;;4865681;29;20030;-71
2023/01/13 15:47:50;;;;;;;;;;;7.80;99.90;;;;;;4854917;29;19931;-70
2023/01/13 15:50:17;;;;;;;;;;;7.80;99.90;;;;;;4859010;29;19928;-70